sensor_id;sensor_type;location;lat;lon;timestamp;P1;durP1;ratioP1;P2;durP2;ratioP2
56537;SDS011;42435;53.292;6.000;2023-06-22T00:02:11;30.00;;;23.77;;
56537;SDS011;42435;53.292;6.000;2023-06-22T00:04:36;24.95;;;22.02;;
56537;SDS011;42435;53.292;6.000;2023-06-22T00:07:02;24.17;;;21.17;;
56537;SDS011;42435;53.292;6.000;2023-06-22T00:09:27;25.55;;;21.95;;
56537;SDS011;42435;53.292;6.000;2023-06-22T00:11:53;30.17;;;24.83;;
56537;SDS011;42435;53.292;6.000;2023-06-22T00:14:24;25.77;;;23.05;;
56537;SDS011;42435;53.292;6.000;2023-06-22T00:16:50;27.95;;;22.95;;
56537;SDS011;42435;53.292;6.000;2023-06-22T00:19:20;26.10;;;21.33;;
56537;SDS011;42435;53.292;6.000;2023-06-22T00:21:46;25.15;;;22.45;;
56537;SDS011;42435;53.292;6.000;2023-06-22T00:24:18;23.83;;;20.90;;
56537;SDS011;42435;53.292;6.000;2023-06-22T00:26:44;24.38;;;21.60;;
56537;SDS011;42435;53.292;6.000;2023-06-22T00:29:10;23.83;;;20.48;;
56537;SDS011;42435;53.292;6.000;2023-06-22T00:31:39;22.05;;;19.83;;
56537;SDS011;42435;53.292;6.000;2023-06-22T00:34:04;20.67;;;18.38;;
56537;SDS011;42435;53.292;6.000;2023-06-22T00:36:31;21.60;;;19.27;;
56537;SDS011;42435;53.292;6.000;2023-06-22T00:38:57;22.52;;;19.23;;
56537;SDS011;42435;53.292;6.000;2023-06-22T00:41:22;18.35;;;16.55;;
56537;SDS011;42435;53.292;6.000;2023-06-22T00:43:48;19.55;;;17.63;;
56537;SDS011;42435;53.292;6.000;2023-06-22T00:46:15;19.95;;;17.88;;
56537;SDS011;42435;53.292;6.000;2023-06-22T00:48:41;19.08;;;17.05;;
56537;SDS011;42435;53.292;6.000;2023-06-22T00:51:09;21.48;;;19.38;;
56537;SDS011;42435;53.292;6.000;2023-06-22T00:53:35;20.30;;;18.13;;
56537;SDS011;42435;53.292;6.000;2023-06-22T00:56:02;20.95;;;18.90;;
56537;SDS011;42435;53.292;6.000;2023-06-22T00:58:29;20.58;;;18.52;;
56537;SDS011;42435;53.292;6.000;2023-06-22T01:00:55;18.80;;;16.88;;
56537;SDS011;42435;53.292;6.000;2023-06-22T01:03:21;19.92;;;18.08;;
56537;SDS011;42435;53.292;6.000;2023-06-22T01:05:47;21.05;;;18.85;;
56537;SDS011;42435;53.292;6.000;2023-06-22T01:11:26;22.08;;;19.95;;
56537;SDS011;42435;53.292;6.000;2023-06-22T01:14:14;23.73;;;21.33;;
56537;SDS011;42435;53.292;6.000;2023-06-22T01:16:45;18.95;;;17.15;;
56537;SDS011;42435;53.292;6.000;2023-06-22T01:19:20;19.38;;;17.58;;
56537;SDS011;42435;53.292;6.000;2023-06-22T01:22:01;19.65;;;17.88;;
56537;SDS011;42435;53.292;6.000;2023-06-22T01:24:42;21.65;;;19.55;;
56537;SDS011;42435;53.292;6.000;2023-06-22T01:27:47;55.58;;;23.60;;
56537;SDS011;42435;53.292;6.000;2023-06-22T01:30:33;48.60;;;25.52;;
56537;SDS011;42435;53.292;6.000;2023-06-22T01:32:59;20.45;;;18.30;;
56537;SDS011;42435;53.292;6.000;2023-06-22T01:35:26;22.52;;;20.00;;
56537;SDS011;42435;53.292;6.000;2023-06-22T01:37:53;22.38;;;20.05;;
56537;SDS011;42435;53.292;6.000;2023-06-22T01:40:20;23.95;;;21.45;;
56537;SDS011;42435;53.292;6.000;2023-06-22T01:42:46;24.40;;;21.80;;
56537;SDS011;42435;53.292;6.000;2023-06-22T01:45:15;27.23;;;24.30;;
56537;SDS011;42435;53.292;6.000;2023-06-22T01:47:41;29.40;;;26.20;;
56537;SDS011;42435;53.292;6.000;2023-06-22T01:50:07;26.15;;;23.45;;
56537;SDS011;42435;53.292;6.000;2023-06-22T01:52:34;23.30;;;20.90;;
56537;SDS011;42435;53.292;6.000;2023-06-22T01:55:00;24.75;;;22.33;;
56537;SDS011;42435;53.292;6.000;2023-06-22T01:57:26;24.08;;;21.58;;
56537;SDS011;42435;53.292;6.000;2023-06-22T01:59:54;23.63;;;21.33;;
56537;SDS011;42435;53.292;6.000;2023-06-22T02:02:33;23.30;;;21.05;;
56537;SDS011;42435;53.292;6.000;2023-06-22T02:05:06;22.38;;;20.17;;
56537;SDS011;42435;53.292;6.000;2023-06-22T02:07:39;24.17;;;21.88;;
56537;SDS011;42435;53.292;6.000;2023-06-22T02:10:11;25.35;;;22.75;;
56537;SDS011;42435;53.292;6.000;2023-06-22T02:12:39;23.40;;;21.17;;
56537;SDS011;42435;53.292;6.000;2023-06-22T02:15:07;112.18;;;28.38;;
56537;SDS011;42435;53.292;6.000;2023-06-22T02:17:33;25.58;;;22.98;;
56537;SDS011;42435;53.292;6.000;2023-06-22T02:20:00;24.30;;;21.90;;
56537;SDS011;42435;53.292;6.000;2023-06-22T02:22:30;22.88;;;20.67;;
56537;SDS011;42435;53.292;6.000;2023-06-22T02:24:56;23.38;;;21.13;;
56537;SDS011;42435;53.292;6.000;2023-06-22T02:27:22;22.73;;;20.58;;
56537;SDS011;42435;53.292;6.000;2023-06-22T02:29:50;26.73;;;24.00;;
56537;SDS011;42435;53.292;6.000;2023-06-22T02:32:16;25.63;;;23.08;;
56537;SDS011;42435;53.292;6.000;2023-06-22T02:34:45;21.23;;;19.23;;
56537;SDS011;42435;53.292;6.000;2023-06-22T02:37:12;22.33;;;20.13;;
56537;SDS011;42435;53.292;6.000;2023-06-22T02:39:41;22.25;;;20.15;;
56537;SDS011;42435;53.292;6.000;2023-06-22T02:42:06;20.42;;;18.48;;
56537;SDS011;42435;53.292;6.000;2023-06-22T02:44:32;24.30;;;22.00;;
56537;SDS011;42435;53.292;6.000;2023-06-22T02:46:58;21.48;;;19.48;;
56537;SDS011;42435;53.292;6.000;2023-06-22T02:49:26;22.27;;;20.17;;
56537;SDS011;42435;53.292;6.000;2023-06-22T02:51:52;20.75;;;18.73;;
56537;SDS011;42435;53.292;6.000;2023-06-22T02:54:18;18.52;;;16.83;;
56537;SDS011;42435;53.292;6.000;2023-06-22T02:56:44;22.20;;;20.05;;
56537;SDS011;42435;53.292;6.000;2023-06-22T02:59:10;19.60;;;17.80;;
56537;SDS011;42435;53.292;6.000;2023-06-22T03:01:37;21.70;;;19.63;;
56537;SDS011;42435;53.292;6.000;2023-06-22T03:04:05;22.75;;;20.55;;
56537;SDS011;42435;53.292;6.000;2023-06-22T03:06:34;19.73;;;17.83;;
56537;SDS011;42435;53.292;6.000;2023-06-22T03:09:02;21.23;;;19.23;;
56537;SDS011;42435;53.292;6.000;2023-06-22T03:11:34;22.77;;;20.58;;
56537;SDS011;42435;53.292;6.000;2023-06-22T03:14:00;24.92;;;22.42;;
56537;SDS011;42435;53.292;6.000;2023-06-22T03:16:26;25.35;;;22.85;;
56537;SDS011;42435;53.292;6.000;2023-06-22T03:18:52;20.40;;;18.30;;
56537;SDS011;42435;53.292;6.000;2023-06-22T03:21:22;18.25;;;16.48;;
56537;SDS011;42435;53.292;6.000;2023-06-22T03:23:48;21.50;;;19.30;;
56537;SDS011;42435;53.292;6.000;2023-06-22T03:26:16;23.10;;;20.80;;
56537;SDS011;42435;53.292;6.000;2023-06-22T03:28:42;21.85;;;19.65;;
56537;SDS011;42435;53.292;6.000;2023-06-22T03:31:10;21.75;;;19.63;;
56537;SDS011;42435;53.292;6.000;2023-06-22T03:33:36;22.58;;;20.33;;
56537;SDS011;42435;53.292;6.000;2023-06-22T03:36:02;20.48;;;18.38;;
56537;SDS011;42435;53.292;6.000;2023-06-22T03:38:27;22.48;;;20.10;;
56537;SDS011;42435;53.292;6.000;2023-06-22T03:40:53;25.48;;;22.77;;
56537;SDS011;42435;53.292;6.000;2023-06-22T03:43:18;24.63;;;22.02;;
56537;SDS011;42435;53.292;6.000;2023-06-22T03:45:44;22.38;;;20.27;;
56537;SDS011;42435;53.292;6.000;2023-06-22T03:48:12;21.58;;;19.38;;
56537;SDS011;42435;53.292;6.000;2023-06-22T03:50:38;21.13;;;19.02;;
56537;SDS011;42435;53.292;6.000;2023-06-22T03:53:03;20.33;;;18.23;;
56537;SDS011;42435;53.292;6.000;2023-06-22T03:55:29;25.70;;;23.00;;
56537;SDS011;42435;53.292;6.000;2023-06-22T03:57:56;25.58;;;22.95;;
56537;SDS011;42435;53.292;6.000;2023-06-22T04:00:22;26.60;;;23.60;;
56537;SDS011;42435;53.292;6.000;2023-06-22T04:02:48;36.83;;;29.38;;
56537;SDS011;42435;53.292;6.000;2023-06-22T04:05:14;182.52;;;35.83;;
56537;SDS011;42435;53.292;6.000;2023-06-22T04:07:42;374.45;;;45.92;;
56537;SDS011;42435;53.292;6.000;2023-06-22T04:10:11;225.13;;;36.90;;
56537;SDS011;42435;53.292;6.000;2023-06-22T04:12:36;119.82;;;30.27;;
56537;SDS011;42435;53.292;6.000;2023-06-22T04:15:02;33.83;;;28.10;;
56537;SDS011;42435;53.292;6.000;2023-06-22T04:17:29;64.45;;;27.83;;
56537;SDS011;42435;53.292;6.000;2023-06-22T04:19:55;25.50;;;22.95;;
56537;SDS011;42435;53.292;6.000;2023-06-22T04:22:20;25.42;;;22.83;;
56537;SDS011;42435;53.292;6.000;2023-06-22T04:24:49;26.17;;;23.42;;
56537;SDS011;42435;53.292;6.000;2023-06-22T04:27:16;26.70;;;24.00;;
56537;SDS011;42435;53.292;6.000;2023-06-22T04:29:46;26.10;;;23.40;;
56537;SDS011;42435;53.292;6.000;2023-06-22T04:32:14;26.25;;;23.58;;
56537;SDS011;42435;53.292;6.000;2023-06-22T04:34:40;26.92;;;24.30;;
56537;SDS011;42435;53.292;6.000;2023-06-22T04:37:06;24.08;;;21.63;;
56537;SDS011;42435;53.292;6.000;2023-06-22T04:39:32;27.38;;;24.45;;
56537;SDS011;42435;53.292;6.000;2023-06-22T04:41:57;23.05;;;20.70;;
56537;SDS011;42435;53.292;6.000;2023-06-22T04:44:28;30.02;;;25.63;;
56537;SDS011;42435;53.292;6.000;2023-06-22T04:46:55;27.83;;;24.83;;
56537;SDS011;42435;53.292;6.000;2023-06-22T04:49:36;29.00;;;23.98;;
56537;SDS011;42435;53.292;6.000;2023-06-22T04:52:06;29.30;;;24.83;;
56537;SDS011;42435;53.292;6.000;2023-06-22T04:54:34;27.55;;;24.10;;
56537;SDS011;42435;53.292;6.000;2023-06-22T04:57:02;35.65;;;28.20;;
56537;SDS011;42435;53.292;6.000;2023-06-22T04:59:29;34.05;;;27.92;;
56537;SDS011;42435;53.292;6.000;2023-06-22T05:01:59;39.70;;;30.23;;
56537;SDS011;42435;53.292;6.000;2023-06-22T05:04:26;41.30;;;30.90;;
56537;SDS011;42435;53.292;6.000;2023-06-22T05:06:53;45.00;;;32.75;;
56537;SDS011;42435;53.292;6.000;2023-06-22T05:09:20;33.80;;;26.30;;
56537;SDS011;42435;53.292;6.000;2023-06-22T05:11:46;40.25;;;30.10;;
56537;SDS011;42435;53.292;6.000;2023-06-22T05:14:13;45.05;;;32.45;;
56537;SDS011;42435;53.292;6.000;2023-06-22T05:16:40;46.50;;;33.80;;
56537;SDS011;42435;53.292;6.000;2023-06-22T05:19:06;38.88;;;28.77;;
56537;SDS011;42435;53.292;6.000;2023-06-22T05:21:32;47.53;;;32.83;;
56537;SDS011;42435;53.292;6.000;2023-06-22T05:23:58;52.58;;;32.55;;
56537;SDS011;42435;53.292;6.000;2023-06-22T05:26:34;45.08;;;32.58;;
56537;SDS011;42435;53.292;6.000;2023-06-22T05:29:00;49.67;;;33.55;;
56537;SDS011;42435;53.292;6.000;2023-06-22T05:31:27;48.42;;;34.10;;
56537;SDS011;42435;53.292;6.000;2023-06-22T05:33:53;41.47;;;30.60;;
56537;SDS011;42435;53.292;6.000;2023-06-22T05:36:20;48.05;;;32.33;;
56537;SDS011;42435;53.292;6.000;2023-06-22T05:38:46;48.05;;;33.67;;
56537;SDS011;42435;53.292;6.000;2023-06-22T05:41:12;50.38;;;33.50;;
56537;SDS011;42435;53.292;6.000;2023-06-22T05:43:42;48.65;;;33.80;;
56537;SDS011;42435;53.292;6.000;2023-06-22T05:46:07;52.88;;;35.70;;
56537;SDS011;42435;53.292;6.000;2023-06-22T05:48:36;55.60;;;35.58;;
56537;SDS011;42435;53.292;6.000;2023-06-22T05:51:02;55.63;;;36.50;;
56537;SDS011;42435;53.292;6.000;2023-06-22T05:53:27;56.10;;;35.28;;
56537;SDS011;42435;53.292;6.000;2023-06-22T05:55:53;53.97;;;35.83;;
56537;SDS011;42435;53.292;6.000;2023-06-22T05:58:18;48.50;;;35.25;;
56537;SDS011;42435;53.292;6.000;2023-06-22T06:00:44;50.05;;;35.67;;
56537;SDS011;42435;53.292;6.000;2023-06-22T06:03:14;48.05;;;34.08;;
56537;SDS011;42435;53.292;6.000;2023-06-22T06:05:42;48.17;;;34.40;;
56537;SDS011;42435;53.292;6.000;2023-06-22T06:08:14;49.15;;;35.75;;
56537;SDS011;42435;53.292;6.000;2023-06-22T06:10:39;46.40;;;34.20;;
56537;SDS011;42435;53.292;6.000;2023-06-22T06:13:05;48.22;;;34.63;;
56537;SDS011;42435;53.292;6.000;2023-06-22T06:15:34;45.35;;;34.70;;
56537;SDS011;42435;53.292;6.000;2023-06-22T06:17:59;44.55;;;32.78;;
56537;SDS011;42435;53.292;6.000;2023-06-22T06:20:26;43.42;;;32.60;;
56537;SDS011;42435;53.292;6.000;2023-06-22T06:22:54;39.75;;;30.20;;
56537;SDS011;42435;53.292;6.000;2023-06-22T06:25:20;38.53;;;28.98;;
56537;SDS011;42435;53.292;6.000;2023-06-22T06:27:47;35.08;;;27.98;;
56537;SDS011;42435;53.292;6.000;2023-06-22T06:30:15;34.20;;;27.40;;
56537;SDS011;42435;53.292;6.000;2023-06-22T06:32:42;33.67;;;26.63;;
56537;SDS011;42435;53.292;6.000;2023-06-22T06:35:12;31.63;;;27.00;;
56537;SDS011;42435;53.292;6.000;2023-06-22T06:37:39;34.55;;;26.08;;
56537;SDS011;42435;53.292;6.000;2023-06-22T06:40:06;31.15;;;26.67;;
56537;SDS011;42435;53.292;6.000;2023-06-22T06:42:35;32.22;;;24.95;;
56537;SDS011;42435;53.292;6.000;2023-06-22T06:45:03;33.92;;;26.35;;
56537;SDS011;42435;53.292;6.000;2023-06-22T06:47:29;31.00;;;26.10;;
56537;SDS011;42435;53.292;6.000;2023-06-22T06:49:55;33.80;;;26.85;;
56537;SDS011;42435;53.292;6.000;2023-06-22T06:52:21;29.80;;;25.83;;
56537;SDS011;42435;53.292;6.000;2023-06-22T06:54:46;31.27;;;25.85;;
56537;SDS011;42435;53.292;6.000;2023-06-22T06:57:12;28.90;;;22.88;;
56537;SDS011;42435;53.292;6.000;2023-06-22T06:59:38;25.92;;;20.95;;
56537;SDS011;42435;53.292;6.000;2023-06-22T07:02:04;26.67;;;21.85;;
56537;SDS011;42435;53.292;6.000;2023-06-22T07:04:30;29.08;;;20.88;;
56537;SDS011;42435;53.292;6.000;2023-06-22T07:06:58;24.92;;;20.13;;
56537;SDS011;42435;53.292;6.000;2023-06-22T07:09:29;25.63;;;20.60;;
56537;SDS011;42435;53.292;6.000;2023-06-22T07:11:54;23.90;;;20.65;;
56537;SDS011;42435;53.292;6.000;2023-06-22T07:14:21;23.90;;;18.88;;
56537;SDS011;42435;53.292;6.000;2023-06-22T07:16:47;21.92;;;19.27;;
56537;SDS011;42435;53.292;6.000;2023-06-22T07:19:16;26.15;;;20.20;;
56537;SDS011;42435;53.292;6.000;2023-06-22T07:21:52;18.30;;;15.60;;
56537;SDS011;42435;53.292;6.000;2023-06-22T07:24:21;17.88;;;14.07;;
56537;SDS011;42435;53.292;6.000;2023-06-22T07:26:47;19.75;;;15.77;;
56537;SDS011;42435;53.292;6.000;2023-06-22T07:29:18;19.98;;;14.95;;
56537;SDS011;42435;53.292;6.000;2023-06-22T07:31:47;23.08;;;17.10;;
56537;SDS011;42435;53.292;6.000;2023-06-22T07:34:17;21.08;;;16.95;;
56537;SDS011;42435;53.292;6.000;2023-06-22T07:36:43;25.10;;;18.45;;
56537;SDS011;42435;53.292;6.000;2023-06-22T07:39:12;24.02;;;18.25;;
56537;SDS011;42435;53.292;6.000;2023-06-22T07:41:39;21.83;;;18.05;;
56537;SDS011;42435;53.292;6.000;2023-06-22T07:44:14;19.38;;;15.70;;
56537;SDS011;42435;53.292;6.000;2023-06-22T07:46:42;18.65;;;16.08;;
56537;SDS011;42435;53.292;6.000;2023-06-22T07:49:11;22.02;;;16.73;;
56537;SDS011;42435;53.292;6.000;2023-06-22T07:51:36;18.92;;;14.68;;
56537;SDS011;42435;53.292;6.000;2023-06-22T07:54:05;17.10;;;15.10;;
56537;SDS011;42435;53.292;6.000;2023-06-22T07:56:31;18.48;;;15.88;;
56537;SDS011;42435;53.292;6.000;2023-06-22T07:58:58;18.58;;;14.20;;
56537;SDS011;42435;53.292;6.000;2023-06-22T08:01:25;17.85;;;15.45;;
56537;SDS011;42435;53.292;6.000;2023-06-22T08:04:00;19.98;;;16.27;;
56537;SDS011;42435;53.292;6.000;2023-06-22T08:06:25;21.58;;;15.35;;
56537;SDS011;42435;53.292;6.000;2023-06-22T08:08:51;17.88;;;14.50;;
56537;SDS011;42435;53.292;6.000;2023-06-22T08:11:18;17.50;;;13.85;;
56537;SDS011;42435;53.292;6.000;2023-06-22T08:13:44;17.02;;;14.80;;
56537;SDS011;42435;53.292;6.000;2023-06-22T08:16:10;15.93;;;13.13;;
56537;SDS011;42435;53.292;6.000;2023-06-22T08:18:38;16.55;;;13.93;;
56537;SDS011;42435;53.292;6.000;2023-06-22T08:21:03;15.60;;;12.20;;
56537;SDS011;42435;53.292;6.000;2023-06-22T08:23:29;16.77;;;11.00;;
56537;SDS011;42435;53.292;6.000;2023-06-22T08:25:58;14.68;;;12.27;;
56537;SDS011;42435;53.292;6.000;2023-06-22T08:28:23;17.98;;;13.48;;
56537;SDS011;42435;53.292;6.000;2023-06-22T08:30:49;16.13;;;12.93;;
56537;SDS011;42435;53.292;6.000;2023-06-22T08:33:14;17.88;;;14.80;;
56537;SDS011;42435;53.292;6.000;2023-06-22T08:35:40;13.55;;;11.88;;
56537;SDS011;42435;53.292;6.000;2023-06-22T08:38:17;17.58;;;13.50;;
56537;SDS011;42435;53.292;6.000;2023-06-22T08:40:43;13.07;;;9.65;;
56537;SDS011;42435;53.292;6.000;2023-06-22T08:43:09;13.70;;;11.75;;
56537;SDS011;42435;53.292;6.000;2023-06-22T08:45:34;15.30;;;12.77;;
56537;SDS011;42435;53.292;6.000;2023-06-22T08:48:00;13.43;;;11.27;;
56537;SDS011;42435;53.292;6.000;2023-06-22T08:50:26;14.05;;;10.48;;
56537;SDS011;42435;53.292;6.000;2023-06-22T08:52:51;15.75;;;12.85;;
56537;SDS011;42435;53.292;6.000;2023-06-22T08:55:17;12.05;;;10.43;;
56537;SDS011;42435;53.292;6.000;2023-06-22T08:57:45;12.10;;;10.23;;
56537;SDS011;42435;53.292;6.000;2023-06-22T09:00:11;14.10;;;11.82;;
56537;SDS011;42435;53.292;6.000;2023-06-22T09:02:42;15.57;;;12.00;;
56537;SDS011;42435;53.292;6.000;2023-06-22T09:05:08;15.25;;;11.48;;
56537;SDS011;42435;53.292;6.000;2023-06-22T09:07:34;12.98;;;11.40;;
56537;SDS011;42435;53.292;6.000;2023-06-22T09:10:00;13.75;;;11.85;;
56537;SDS011;42435;53.292;6.000;2023-06-22T09:12:27;11.80;;;10.25;;
56537;SDS011;42435;53.292;6.000;2023-06-22T09:14:59;11.65;;;10.45;;
56537;SDS011;42435;53.292;6.000;2023-06-22T09:17:25;10.80;;;9.50;;
56537;SDS011;42435;53.292;6.000;2023-06-22T09:19:51;9.80;;;8.23;;
56537;SDS011;42435;53.292;6.000;2023-06-22T09:22:17;8.63;;;7.72;;
56537;SDS011;42435;53.292;6.000;2023-06-22T09:24:43;9.63;;;8.05;;
56537;SDS011;42435;53.292;6.000;2023-06-22T09:27:08;7.80;;;7.03;;
56537;SDS011;42435;53.292;6.000;2023-06-22T09:29:34;6.40;;;5.68;;
56537;SDS011;42435;53.292;6.000;2023-06-22T09:31:59;9.32;;;7.32;;
56537;SDS011;42435;53.292;6.000;2023-06-22T09:34:25;6.95;;;5.60;;
56537;SDS011;42435;53.292;6.000;2023-06-22T09:36:51;6.05;;;4.95;;
56537;SDS011;42435;53.292;6.000;2023-06-22T09:39:20;5.60;;;4.40;;
56537;SDS011;42435;53.292;6.000;2023-06-22T09:41:45;8.65;;;5.10;;
56537;SDS011;42435;53.292;6.000;2023-06-22T09:44:11;5.68;;;5.10;;
56537;SDS011;42435;53.292;6.000;2023-06-22T09:46:37;8.18;;;6.72;;
56537;SDS011;42435;53.292;6.000;2023-06-22T09:49:06;8.15;;;5.57;;
56537;SDS011;42435;53.292;6.000;2023-06-22T09:51:31;8.05;;;6.40;;
56537;SDS011;42435;53.292;6.000;2023-06-22T09:53:57;7.90;;;6.18;;
56537;SDS011;42435;53.292;6.000;2023-06-22T09:56:26;7.13;;;5.25;;
56537;SDS011;42435;53.292;6.000;2023-06-22T09:58:53;10.82;;;7.10;;
56537;SDS011;42435;53.292;6.000;2023-06-22T10:01:20;7.20;;;5.82;;
56537;SDS011;42435;53.292;6.000;2023-06-22T10:03:46;7.10;;;5.88;;
56537;SDS011;42435;53.292;6.000;2023-06-22T10:06:12;10.23;;;6.55;;
56537;SDS011;42435;53.292;6.000;2023-06-22T10:08:37;6.95;;;5.78;;
56537;SDS011;42435;53.292;6.000;2023-06-22T10:11:04;5.93;;;5.07;;
56537;SDS011;42435;53.292;6.000;2023-06-22T10:13:30;7.93;;;5.72;;
56537;SDS011;42435;53.292;6.000;2023-06-22T10:15:58;5.97;;;5.40;;
56537;SDS011;42435;53.292;6.000;2023-06-22T10:18:23;7.38;;;6.18;;
56537;SDS011;42435;53.292;6.000;2023-06-22T10:20:50;10.05;;;7.00;;
56537;SDS011;42435;53.292;6.000;2023-06-22T10:23:16;6.63;;;5.72;;
56537;SDS011;42435;53.292;6.000;2023-06-22T10:25:46;8.45;;;6.88;;
56537;SDS011;42435;53.292;6.000;2023-06-22T10:28:11;6.28;;;5.68;;
56537;SDS011;42435;53.292;6.000;2023-06-22T10:30:38;7.80;;;6.40;;
56537;SDS011;42435;53.292;6.000;2023-06-22T10:33:06;7.38;;;6.03;;
56537;SDS011;42435;53.292;6.000;2023-06-22T10:35:33;7.72;;;6.13;;
56537;SDS011;42435;53.292;6.000;2023-06-22T10:37:58;8.13;;;6.28;;
56537;SDS011;42435;53.292;6.000;2023-06-22T10:40:24;9.30;;;7.00;;
56537;SDS011;42435;53.292;6.000;2023-06-22T10:42:50;7.85;;;6.45;;
56537;SDS011;42435;53.292;6.000;2023-06-22T10:45:16;6.05;;;5.40;;
56537;SDS011;42435;53.292;6.000;2023-06-22T10:47:41;7.65;;;5.40;;
56537;SDS011;42435;53.292;6.000;2023-06-22T10:50:10;6.03;;;4.70;;
56537;SDS011;42435;53.292;6.000;2023-06-22T10:52:36;7.50;;;5.88;;
56537;SDS011;42435;53.292;6.000;2023-06-22T10:55:02;7.47;;;5.82;;
56537;SDS011;42435;53.292;6.000;2023-06-22T10:57:28;5.75;;;5.18;;
56537;SDS011;42435;53.292;6.000;2023-06-22T10:59:54;7.05;;;6.30;;
56537;SDS011;42435;53.292;6.000;2023-06-22T11:02:20;8.23;;;6.65;;
56537;SDS011;42435;53.292;6.000;2023-06-22T11:04:46;7.68;;;5.95;;
56537;SDS011;42435;53.292;6.000;2023-06-22T11:07:12;7.00;;;6.28;;
56537;SDS011;42435;53.292;6.000;2023-06-22T11:09:38;7.20;;;6.13;;
56537;SDS011;42435;53.292;6.000;2023-06-22T11:12:04;6.68;;;5.32;;
56537;SDS011;42435;53.292;6.000;2023-06-22T11:14:31;6.95;;;5.80;;
56537;SDS011;42435;53.292;6.000;2023-06-22T11:16:58;6.55;;;5.85;;
56537;SDS011;42435;53.292;6.000;2023-06-22T11:19:24;6.97;;;4.97;;
56537;SDS011;42435;53.292;6.000;2023-06-22T11:21:49;4.65;;;3.65;;
56537;SDS011;42435;53.292;6.000;2023-06-22T11:24:15;8.20;;;5.75;;
56537;SDS011;42435;53.292;6.000;2023-06-22T11:26:41;7.65;;;5.15;;
56537;SDS011;42435;53.292;6.000;2023-06-22T11:29:09;5.63;;;4.78;;
56537;SDS011;42435;53.292;6.000;2023-06-22T11:31:34;5.47;;;4.53;;
56537;SDS011;42435;53.292;6.000;2023-06-22T11:34:00;6.22;;;4.60;;
56537;SDS011;42435;53.292;6.000;2023-06-22T11:36:26;3.75;;;3.08;;
56537;SDS011;42435;53.292;6.000;2023-06-22T11:38:52;3.05;;;2.53;;
56537;SDS011;42435;53.292;6.000;2023-06-22T11:41:18;3.22;;;2.40;;
56537;SDS011;42435;53.292;6.000;2023-06-22T11:43:44;3.50;;;2.47;;
56537;SDS011;42435;53.292;6.000;2023-06-22T11:46:12;3.20;;;1.80;;
56537;SDS011;42435;53.292;6.000;2023-06-22T11:48:38;2.03;;;1.77;;
56537;SDS011;42435;53.292;6.000;2023-06-22T11:51:04;2.17;;;1.60;;
56537;SDS011;42435;53.292;6.000;2023-06-22T11:53:34;3.25;;;1.80;;
56537;SDS011;42435;53.292;6.000;2023-06-22T11:56:00;1.70;;;1.40;;
56537;SDS011;42435;53.292;6.000;2023-06-22T11:58:27;2.22;;;1.33;;
56537;SDS011;42435;53.292;6.000;2023-06-22T12:00:55;2.30;;;1.48;;
56537;SDS011;42435;53.292;6.000;2023-06-22T12:03:21;4.00;;;1.70;;
56537;SDS011;42435;53.292;6.000;2023-06-22T12:05:47;1.33;;;1.23;;
56537;SDS011;42435;53.292;6.000;2023-06-22T12:08:13;1.98;;;1.17;;
56537;SDS011;42435;53.292;6.000;2023-06-22T12:10:39;2.78;;;1.13;;
56537;SDS011;42435;53.292;6.000;2023-06-22T12:13:04;2.35;;;1.48;;
56537;SDS011;42435;53.292;6.000;2023-06-22T12:15:30;2.45;;;1.25;;
56537;SDS011;42435;53.292;6.000;2023-06-22T12:17:55;2.92;;;1.17;;
56537;SDS011;42435;53.292;6.000;2023-06-22T12:20:21;1.90;;;1.20;;
56537;SDS011;42435;53.292;6.000;2023-06-22T12:22:47;1.10;;;1.00;;
56537;SDS011;42435;53.292;6.000;2023-06-22T12:25:13;2.10;;;1.40;;
56537;SDS011;42435;53.292;6.000;2023-06-22T12:27:38;4.22;;;1.42;;
56537;SDS011;42435;53.292;6.000;2023-06-22T12:30:04;1.63;;;1.13;;
56537;SDS011;42435;53.292;6.000;2023-06-22T12:32:32;3.28;;;1.27;;
56537;SDS011;42435;53.292;6.000;2023-06-22T12:34:58;1.63;;;1.20;;
56537;SDS011;42435;53.292;6.000;2023-06-22T12:37:24;2.88;;;1.30;;
56537;SDS011;42435;53.292;6.000;2023-06-22T12:39:49;1.95;;;1.00;;
56537;SDS011;42435;53.292;6.000;2023-06-22T12:42:15;4.50;;;1.60;;
56537;SDS011;42435;53.292;6.000;2023-06-22T12:44:42;1.73;;;1.20;;
56537;SDS011;42435;53.292;6.000;2023-06-22T12:47:10;2.30;;;1.35;;
56537;SDS011;42435;53.292;6.000;2023-06-22T12:49:36;2.30;;;1.23;;
56537;SDS011;42435;53.292;6.000;2023-06-22T12:52:04;2.75;;;1.30;;
56537;SDS011;42435;53.292;6.000;2023-06-22T12:54:34;1.90;;;1.17;;
56537;SDS011;42435;53.292;6.000;2023-06-22T12:57:01;4.10;;;1.20;;
56537;SDS011;42435;53.292;6.000;2023-06-22T12:59:26;2.65;;;1.35;;
56537;SDS011;42435;53.292;6.000;2023-06-22T13:01:52;1.35;;;1.20;;
56537;SDS011;42435;53.292;6.000;2023-06-22T13:04:18;1.85;;;1.40;;
56537;SDS011;42435;53.292;6.000;2023-06-22T13:06:46;1.35;;;1.25;;
56537;SDS011;42435;53.292;6.000;2023-06-22T13:09:15;1.85;;;1.30;;
56537;SDS011;42435;53.292;6.000;2023-06-22T13:11:42;3.10;;;1.30;;
56537;SDS011;42435;53.292;6.000;2023-06-22T13:14:09;2.40;;;1.20;;
56537;SDS011;42435;53.292;6.000;2023-06-22T13:16:35;1.17;;;0.98;;
56537;SDS011;42435;53.292;6.000;2023-06-22T13:19:01;2.20;;;1.00;;
56537;SDS011;42435;53.292;6.000;2023-06-22T13:21:26;2.08;;;1.20;;
56537;SDS011;42435;53.292;6.000;2023-06-22T13:23:54;3.28;;;1.40;;
56537;SDS011;42435;53.292;6.000;2023-06-22T13:26:20;2.58;;;1.10;;
56537;SDS011;42435;53.292;6.000;2023-06-22T13:28:47;2.75;;;1.35;;
56537;SDS011;42435;53.292;6.000;2023-06-22T13:31:12;1.98;;;1.05;;
56537;SDS011;42435;53.292;6.000;2023-06-22T13:33:38;2.38;;;1.17;;
56537;SDS011;42435;53.292;6.000;2023-06-22T13:36:05;1.80;;;1.20;;
56537;SDS011;42435;53.292;6.000;2023-06-22T13:38:32;2.22;;;1.20;;
56537;SDS011;42435;53.292;6.000;2023-06-22T13:40:59;1.55;;;1.20;;
56537;SDS011;42435;53.292;6.000;2023-06-22T13:43:26;1.88;;;1.00;;
56537;SDS011;42435;53.292;6.000;2023-06-22T13:45:52;1.73;;;1.10;;
56537;SDS011;42435;53.292;6.000;2023-06-22T13:48:17;1.88;;;1.15;;
56537;SDS011;42435;53.292;6.000;2023-06-22T13:50:43;3.75;;;1.40;;
56537;SDS011;42435;53.292;6.000;2023-06-22T13:53:09;2.30;;;1.20;;
56537;SDS011;42435;53.292;6.000;2023-06-22T13:55:34;1.58;;;1.20;;
56537;SDS011;42435;53.292;6.000;2023-06-22T13:58:00;2.28;;;1.17;;
56537;SDS011;42435;53.292;6.000;2023-06-22T14:00:25;2.47;;;1.58;;
56537;SDS011;42435;53.292;6.000;2023-06-22T14:02:52;2.65;;;1.30;;
56537;SDS011;42435;53.292;6.000;2023-06-22T14:05:18;2.00;;;1.27;;
56537;SDS011;42435;53.292;6.000;2023-06-22T14:07:44;2.95;;;1.20;;
56537;SDS011;42435;53.292;6.000;2023-06-22T14:10:10;2.35;;;1.20;;
56537;SDS011;42435;53.292;6.000;2023-06-22T14:12:39;4.60;;;1.50;;
56537;SDS011;42435;53.292;6.000;2023-06-22T14:15:05;1.83;;;1.10;;
56537;SDS011;42435;53.292;6.000;2023-06-22T14:17:31;1.50;;;1.20;;
56537;SDS011;42435;53.292;6.000;2023-06-22T14:19:56;1.85;;;1.20;;
56537;SDS011;42435;53.292;6.000;2023-06-22T14:22:22;1.92;;;1.35;;
56537;SDS011;42435;53.292;6.000;2023-06-22T14:24:48;2.88;;;1.50;;
56537;SDS011;42435;53.292;6.000;2023-06-22T14:27:14;4.68;;;1.55;;
56537;SDS011;42435;53.292;6.000;2023-06-22T14:29:40;3.22;;;1.27;;
56537;SDS011;42435;53.292;6.000;2023-06-22T14:32:06;2.15;;;1.10;;
56537;SDS011;42435;53.292;6.000;2023-06-22T14:34:32;1.92;;;1.73;;